createdAt,value
2018-12-17T00:15:18.337Z,98358.61
2018-12-17T00:17:46.051Z,98355.55
2018-12-17T00:20:13.820Z,98356.34
2018-12-17T00:22:41.371Z,98358.02
2018-12-17T00:25:08.964Z,98366.59
2018-12-17T00:27:36.518Z,98356.64
2018-12-17T00:30:04.618Z,98363.94
2018-12-17T00:32:32.258Z,98365.64
2018-12-17T00:34:59.880Z,98366.99
2018-12-17T00:37:27.487Z,98366.08
2018-12-17T00:39:55.539Z,98362.58
2018-12-17T00:42:23.058Z,98366.05
2018-12-17T00:44:50.755Z,98363.85
2018-12-17T00:47:18.455Z,98361.97
2018-12-17T00:49:45.988Z,98358.45
2018-12-17T00:52:13.695Z,98360.64
2018-12-17T00:54:41.264Z,98363.62
2018-12-17T00:57:09.086Z,98367.05
2018-12-17T00:59:36.928Z,98367.14
2018-12-17T01:02:04.531Z,98363.19
2018-12-17T01:04:32.121Z,98363.16
2018-12-17T01:06:59.942Z,98370.89
2018-12-17T01:09:27.453Z,98368.69
2018-12-17T01:11:55.013Z,98375.22
2018-12-17T01:14:22.623Z,98382.98
2018-12-17T01:16:50.255Z,98380.82
2018-12-17T01:19:17.762Z,98381.28
2018-12-17T01:21:45.762Z,98387.78
2018-12-17T01:24:13.639Z,98394.64
2018-12-17T01:26:41.163Z,98401.24
2018-12-17T01:29:09.090Z,98404.70
2018-12-17T01:31:36.615Z,98400.87
2018-12-17T01:34:04.205Z,98396.17
2018-12-17T01:36:31.790Z,98395.45
2018-12-17T01:38:59.413Z,98400.28
2018-12-17T01:41:26.967Z,98407.67
2018-12-17T01:43:54.750Z,98408.98
2018-12-17T01:46:22.594Z,98413.34
2018-12-17T01:48:50.132Z,98409.84
2018-12-17T01:51:17.812Z,98417.59
2018-12-17T01:53:45.375Z,98425.27
2018-12-17T01:56:12.977Z,98429.03
2018-12-17T01:58:40.575Z,98422.87
2018-12-17T02:01:08.396Z,98429.16
2018-12-17T02:03:35.925Z,98431.94
2018-12-17T02:06:03.532Z,98425.61
2018-12-17T02:08:31.434Z,98428.79
2018-12-17T02:10:59.021Z,98435.56
2018-12-17T02:13:26.633Z,98435.28
2018-12-17T02:15:54.291Z,98433.16
2018-12-17T02:18:21.847Z,98441.30
2018-12-17T02:20:49.451Z,98454.67
2018-12-17T02:23:17.076Z,98448.47
2018-12-17T02:25:44.728Z,98452.18
2018-12-17T02:28:12.333Z,98451.61
2018-12-17T02:30:40.038Z,98450.64
2018-12-17T02:33:07.593Z,98448.67
2018-12-17T02:35:35.180Z,98456.45
2018-12-17T02:38:02.845Z,98462.55
2018-12-17T02:40:30.409Z,98460.87
2018-12-17T02:42:58.007Z,98460.06
2018-12-17T02:45:25.536Z,98459.77
2018-12-17T02:47:53.109Z,98467.66
2018-12-17T02:50:20.661Z,98472.97
2018-12-17T02:52:48.239Z,98469.04
2018-12-17T02:55:15.794Z,98470.56
2018-12-17T02:57:43.466Z,98465.24
2018-12-17T03:00:11.127Z,98469.04
2018-12-17T03:02:38.699Z,98469.22
2018-12-17T03:05:06.554Z,98476.58
2018-12-17T03:07:34.201Z,98474.95
2018-12-17T03:10:01.784Z,98480.75
2018-12-17T03:12:29.334Z,98486.94
2018-12-17T03:14:56.881Z,98481.63
2018-12-17T03:17:24.587Z,98481.40
2018-12-17T03:19:52.240Z,98483.30
2018-12-17T03:22:19.833Z,98485.66
2018-12-17T03:24:47.372Z,98490.97
2018-12-17T03:27:14.943Z,98495.34
2018-12-17T03:29:42.557Z,98492.38
2018-12-17T03:32:10.186Z,98491.55
2018-12-17T03:34:37.769Z,98500.73
2018-12-17T03:37:05.543Z,98496.03
2018-12-17T03:39:33.149Z,98500.80
2018-12-17T03:42:00.766Z,98502.17
2018-12-17T03:44:28.296Z,98506.22
2018-12-17T03:46:55.829Z,98504.55
2018-12-17T03:49:23.400Z,98503.72
2018-12-17T03:51:51.029Z,98507.76
2018-12-17T03:54:18.758Z,98505.63
2018-12-17T03:56:46.348Z,98510.80
2018-12-17T03:59:14.044Z,98512.22
2018-12-17T04:01:41.573Z,98511.45
2018-12-17T04:04:09.201Z,98518.33
2018-12-17T04:06:37.674Z,98517.22
2018-12-17T04:09:06.147Z,98521.95
2018-12-17T04:11:33.813Z,98522.79
2018-12-17T04:14:01.419Z,98518.83
2018-12-17T04:16:29.008Z,98519.30
2018-12-17T04:18:56.886Z,98526.59
2018-12-17T04:21:24.625Z,98529.39
2018-12-17T04:23:52.247Z,98526.79
2018-12-17T04:26:19.824Z,98527.56
2018-12-17T04:28:47.480Z,98527.66
2018-12-17T04:31:15.225Z,98534.96
2018-12-17T04:33:42.757Z,98530.23
2018-12-17T04:36:10.347Z,98534.53
2018-12-17T04:38:38.166Z,98537.80
2018-12-17T04:41:05.744Z,98547.30
2018-12-17T04:43:33.491Z,98549.87
2018-12-17T04:46:01.327Z,98554.49
2018-12-17T04:48:29.124Z,98557.66
2018-12-17T04:50:56.674Z,98563.61
2018-12-17T04:53:24.528Z,98568.37
2018-12-17T04:55:52.744Z,98572.45
2018-12-17T04:58:20.401Z,98577.92
2018-12-17T05:00:48.097Z,98581.30
2018-12-17T05:03:15.792Z,98586.45
2018-12-17T05:05:43.618Z,98593.02
2018-12-17T05:08:12.094Z,98593.70
2018-12-17T05:10:40.178Z,98594.17
2018-12-17T05:13:07.792Z,98599.98
2018-12-17T05:15:35.520Z,98609.50
2018-12-17T05:18:03.278Z,98609.41
2018-12-17T05:20:31.126Z,98611.09
2018-12-17T05:22:58.839Z,98618.59
2018-12-17T05:25:26.464Z,98619.12
2018-12-17T05:27:54.276Z,98619.12
2018-12-17T05:30:21.873Z,98621.30
2018-12-17T05:32:49.776Z,98627.06
2018-12-17T05:35:17.608Z,98632.39
2018-12-17T05:37:45.337Z,98636.67
2018-12-17T05:40:12.993Z,98634.52
2018-12-17T05:42:40.616Z,98635.33
2018-12-17T05:45:08.322Z,98638.80
2018-12-17T05:47:35.916Z,98647.06
2018-12-17T05:50:03.719Z,98656.97
2018-12-17T05:52:31.248Z,98662.39
2018-12-17T05:54:58.875Z,98665.64
2018-12-17T05:57:26.545Z,98658.77
2018-12-17T05:59:54.158Z,98666.95
2018-12-17T06:02:21.688Z,98674.73
2018-12-17T06:04:49.270Z,98671.77
2018-12-17T06:07:16.900Z,98679.48
2018-12-17T06:09:44.433Z,98675.72
2018-12-17T06:12:12.081Z,98683.70
2018-12-17T06:14:39.603Z,98684.94
2018-12-17T06:17:07.229Z,98690.20
2018-12-17T06:19:35.105Z,98697.53
2018-12-17T06:22:02.665Z,98698.36
2018-12-17T06:24:30.247Z,98704.25
2018-12-17T06:26:57.843Z,98708.36
2018-12-17T06:29:25.482Z,98715.39
2018-12-17T06:31:53.174Z,98710.36
2018-12-17T06:34:20.820Z,98715.53
2018-12-17T06:36:48.611Z,98711.08
2018-12-17T06:39:16.223Z,98716.91
2018-12-17T06:41:43.903Z,98708.48
2018-12-17T06:44:11.527Z,98710.41
2018-12-17T06:46:39.181Z,98711.45
2018-12-17T06:49:06.691Z,98710.28
2018-12-17T06:51:34.723Z,98712.06
2018-12-17T06:54:02.245Z,98715.88
2018-12-17T06:56:29.843Z,98716.30
2018-12-17T06:58:57.352Z,98727.95
2018-12-17T07:01:25.287Z,98730.42
2018-12-17T07:09:21.222Z,98733.64
2018-12-17T07:14:36.492Z,98736.53
2018-12-17T07:25:16.455Z,98785.91
2018-12-17T07:27:43.987Z,98790.52
2018-12-17T07:30:11.663Z,98797.03
2018-12-17T07:32:39.308Z,98805.57
2018-12-17T07:35:07.073Z,98810.38
2018-12-17T07:37:34.619Z,98810.06
2018-12-17T07:40:02.156Z,98810.65
2018-12-17T07:42:29.731Z,98809.30
2018-12-17T07:44:57.242Z,98814.38
2018-12-17T07:47:24.755Z,98822.19
2018-12-17T07:49:52.288Z,98825.25
2018-12-17T07:52:19.849Z,98828.12
2018-12-17T07:54:47.498Z,98832.34
2018-12-17T07:57:15.040Z,98827.83
2018-12-17T07:59:42.570Z,98830.02
2018-12-17T08:02:10.217Z,98834.48
2018-12-17T08:04:37.903Z,98839.30
2018-12-17T08:07:05.493Z,98843.35
2018-12-17T08:09:33.049Z,98841.86
2018-12-17T08:12:00.597Z,98848.99
2018-12-17T08:14:28.177Z,98858.23
2018-12-17T08:16:55.818Z,98867.18
2018-12-17T08:19:23.347Z,98872.19
2018-12-17T08:21:51.137Z,98875.87
2018-12-17T08:24:18.683Z,98876.39
2018-12-17T08:26:46.231Z,98874.86
2018-12-17T08:29:13.872Z,98867.05
2018-12-17T08:31:41.425Z,98866.14
2018-12-17T08:34:08.927Z,98859.63
2018-12-17T08:36:36.598Z,98864.33
2018-12-17T08:39:05.296Z,98864.37
2018-12-17T08:41:33.150Z,98873.75
2018-12-17T08:44:00.707Z,98888.75
2018-12-17T08:46:28.335Z,98892.70
2018-12-17T08:48:55.901Z,98889.63
2018-12-17T08:51:23.666Z,98897.03
2018-12-17T08:53:51.231Z,98897.39
2018-12-17T08:56:18.755Z,98908.27
2018-12-17T08:58:46.321Z,98912.78
2018-12-17T09:01:13.870Z,98913.19
2018-12-17T09:03:41.426Z,98924.68
2018-12-17T09:06:08.975Z,98921.56
2018-12-17T09:08:36.621Z,98923.77
2018-12-17T09:11:04.280Z,98924.77
2018-12-17T09:13:31.765Z,98929.67
2018-12-17T09:15:59.427Z,98930.20
2018-12-17T09:18:27.043Z,98925.55
2018-12-17T09:20:55.339Z,98924.05
2018-12-17T09:23:22.996Z,98926.62
2018-12-17T09:25:50.569Z,98928.52
2018-12-17T09:28:18.196Z,98932.58
2018-12-17T09:30:45.778Z,98936.48
2018-12-17T09:33:13.556Z,98931.42
2018-12-17T09:35:41.242Z,98939.75
2018-12-17T09:38:08.869Z,98942.44
2018-12-17T09:40:36.418Z,98950.94
2018-12-17T09:43:04.049Z,98956.19
2018-12-17T09:45:31.725Z,98950.25
2018-12-17T09:47:59.329Z,98956.59
2018-12-17T09:50:26.992Z,98962.31
2018-12-17T09:52:54.604Z,98959.33
2018-12-17T09:55:22.430Z,98961.69
2018-12-17T09:57:50.127Z,98964.36
2018-12-17T10:00:17.692Z,98961.83
2018-12-17T10:02:45.253Z,98956.34
2018-12-17T10:05:12.966Z,98942.14
2018-12-17T10:07:40.529Z,98947.51
2018-12-17T10:10:08.273Z,98936.36
2018-12-17T10:12:35.928Z,98940.94
2018-12-17T10:15:03.903Z,98940.23
2018-12-17T10:17:31.447Z,98941.64
2018-12-17T10:19:59.214Z,98941.36
2018-12-17T10:22:26.803Z,98940.09
2018-12-17T10:24:55.064Z,98939.25
2018-12-17T10:27:22.594Z,98935.30
2018-12-17T10:29:50.645Z,98937.02
2018-12-17T10:32:18.135Z,98934.37
2018-12-17T10:34:45.705Z,98937.91
2018-12-17T10:37:13.342Z,98939.23
2018-12-17T10:39:40.898Z,98933.61
2018-12-17T10:42:08.576Z,98929.67
2018-12-17T10:44:36.124Z,98925.31
2018-12-17T10:47:03.936Z,98924.91
2018-12-17T10:49:31.487Z,98918.80
2018-12-17T10:51:59.734Z,98919.20
2018-12-17T10:54:27.648Z,98923.12
2018-12-17T10:56:55.293Z,98924.44
2018-12-17T10:59:22.845Z,98923.95
2018-12-17T11:01:58.008Z,98917.34
2018-12-17T11:04:28.529Z,98924.38
2018-12-17T11:06:56.161Z,98938.36
2018-12-17T11:09:23.696Z,98934.39
2018-12-17T11:11:51.389Z,98934.81
2018-12-17T11:14:19.087Z,98929.14
2018-12-17T11:16:46.812Z,98927.77
2018-12-17T11:19:14.436Z,98931.22
2018-12-17T11:21:42.141Z,98927.39
2018-12-17T11:24:09.899Z,98922.56
2018-12-17T11:26:37.608Z,98926.06
2018-12-17T11:29:05.213Z,98921.72
2018-12-17T11:31:32.832Z,98913.75
2018-12-17T11:34:00.427Z,98914.58
2018-12-17T11:36:27.966Z,98913.75
2018-12-17T11:38:55.539Z,98912.53
2018-12-17T11:41:23.145Z,98918.23
2018-12-17T11:43:50.794Z,98923.03
2018-12-17T11:46:18.417Z,98921.24
2018-12-17T11:48:46.019Z,98916.34
2018-12-17T11:51:13.539Z,98919.48
2018-12-17T11:53:41.180Z,98916.41
2018-12-17T11:56:08.803Z,98915.47
2018-12-17T11:58:36.441Z,98921.02
2018-12-17T12:01:05.425Z,98912.63
2018-12-17T12:03:35.652Z,98915.27
2018-12-17T12:06:03.348Z,98921.30
2018-12-17T12:08:32.584Z,98920.59
2018-12-17T12:11:00.096Z,98918.51
2018-12-17T12:13:27.654Z,98914.12
2018-12-17T12:15:55.256Z,98910.91
2018-12-17T12:18:22.907Z,98917.22
2018-12-17T12:20:50.504Z,98923.26
2018-12-17T12:23:18.157Z,98916.52
2018-12-17T12:25:46.231Z,98923.01
2018-12-17T12:28:13.860Z,98928.58
2018-12-17T12:30:41.625Z,98929.86
2018-12-17T12:33:09.223Z,98935.96
2018-12-17T12:35:36.886Z,98940.50
2018-12-17T12:38:04.565Z,98941.39
2018-12-17T12:40:33.218Z,98948.41
2018-12-17T12:43:00.934Z,98951.53
2018-12-17T12:45:28.584Z,98956.37
2018-12-17T12:47:56.130Z,98962.66
2018-12-17T12:50:23.665Z,98962.23
2018-12-17T12:52:51.383Z,98966.23
2018-12-17T12:55:19.007Z,98961.47
2018-12-17T12:57:46.572Z,98966.28
2018-12-17T13:00:14.806Z,98969.77
2018-12-17T13:02:42.459Z,98977.67
2018-12-17T13:05:10.173Z,98979.87
2018-12-17T13:07:37.743Z,98982.95
2018-12-17T13:10:08.234Z,98985.58
2018-12-17T13:12:35.883Z,98987.29
2018-12-17T13:15:03.885Z,98990.80
2018-12-17T13:17:31.568Z,98990.36
2018-12-17T13:20:13.690Z,98993.41
2018-12-17T13:22:58.381Z,98999.56
2018-12-17T13:25:33.405Z,99005.22
2018-12-17T13:28:01.332Z,99012.64
2018-12-17T13:30:29.219Z,99011.38
2018-12-17T13:32:56.829Z,99009.20
2018-12-17T13:35:24.813Z,99020.13
2018-12-17T13:37:52.497Z,99017.94
2018-12-17T13:40:20.234Z,99017.06
2018-12-17T13:43:18.577Z,99014.89
2018-12-17T13:45:46.130Z,99025.41
2018-12-17T13:48:14.163Z,99031.11
2018-12-17T13:50:42.085Z,99028.94
2018-12-17T13:53:14.989Z,99031.98
2018-12-17T13:55:42.511Z,99038.98
2018-12-17T13:58:10.488Z,99045.97
2018-12-17T14:00:38.208Z,99046.41
2018-12-17T14:03:05.980Z,99048.17
2018-12-17T14:05:33.869Z,99055.62
2018-12-17T14:08:01.576Z,99057.34
2018-12-17T14:10:34.736Z,99062.17
2018-12-17T14:13:02.298Z,99063.91
2018-12-17T14:15:35.273Z,99066.09
2018-12-17T14:18:05.322Z,99077.45
2018-12-17T14:20:38.311Z,99075.72
2018-12-17T14:23:06.081Z,99087.51
2018-12-17T14:25:33.653Z,99090.14
2018-12-17T14:28:01.355Z,99100.14
2018-12-17T14:30:29.090Z,99108.87
2018-12-17T14:32:56.647Z,99114.56
2018-12-17T14:35:24.266Z,99115.45
2018-12-17T14:37:57.473Z,99124.61
2018-12-17T14:40:25.060Z,99132.91
2018-12-17T14:42:52.838Z,99136.45
2018-12-17T14:45:20.491Z,99146.03
2018-12-17T14:47:48.035Z,99145.14
2018-12-17T14:50:15.625Z,99155.62
2018-12-17T14:52:43.264Z,99156.88
2018-12-17T14:55:10.832Z,99159.52
2018-12-17T14:57:38.609Z,99161.27
2018-12-17T15:00:07.585Z,99165.19
2018-12-17T15:02:35.410Z,99169.56
2018-12-17T15:05:03.119Z,99174.33
2018-12-17T15:07:30.699Z,99184.42
2018-12-17T15:09:58.302Z,99187.02
2018-12-17T15:12:25.921Z,99195.77
2018-12-17T15:14:53.448Z,99197.55
2018-12-17T15:17:21.111Z,99208.44
2018-12-17T15:19:49.169Z,99214.54
2018-12-17T15:22:16.729Z,99218.48
2018-12-17T15:24:44.339Z,99223.28
2018-12-17T15:27:11.959Z,99227.62
2018-12-17T15:29:39.729Z,99228.03
2018-12-17T15:32:07.429Z,99227.19
2018-12-17T15:34:35.125Z,99224.09
2018-12-17T15:37:15.145Z,99235.81
2018-12-17T15:39:43.211Z,99234.52
2018-12-17T15:42:11.045Z,99237.53
2018-12-17T15:44:38.795Z,99244.10
2018-12-17T15:47:06.510Z,99241.52
2018-12-17T15:49:34.038Z,99246.30
2018-12-17T15:52:01.766Z,99244.10
2018-12-17T15:54:29.417Z,99249.72
2018-12-17T15:56:57.157Z,99251.38
2018-12-17T15:59:24.867Z,99251.44
2018-12-17T16:01:52.442Z,99250.52
2018-12-17T16:04:19.957Z,99255.77
2018-12-17T16:06:47.560Z,99246.66
2018-12-17T16:09:15.358Z,99249.22
2018-12-17T16:11:42.887Z,99245.73
2018-12-17T16:14:10.443Z,99245.34
2018-12-17T16:16:38.037Z,99243.98
2018-12-17T16:19:05.739Z,99242.67
2018-12-17T16:21:33.452Z,99255.27
2018-12-17T16:24:00.981Z,99253.55
2018-12-17T16:26:28.570Z,99255.75
2018-12-17T16:28:56.376Z,99259.29
2018-12-17T16:31:24.057Z,99265.73
2018-12-17T16:33:51.614Z,99264.90
2018-12-17T16:36:19.362Z,99269.66
2018-12-17T16:38:46.949Z,99271.86
2018-12-17T16:41:14.850Z,99272.80
2018-12-17T16:43:42.451Z,99274.98
2018-12-17T16:46:10.069Z,99273.66
2018-12-17T16:48:37.813Z,99274.94
2018-12-17T16:51:05.593Z,99274.09
2018-12-17T16:53:33.248Z,99274.98
2018-12-17T16:56:00.801Z,99282.41
2018-12-17T16:58:28.725Z,99286.36
2018-12-17T17:00:56.433Z,99298.13
2018-12-17T17:03:24.402Z,99297.59
2018-12-17T17:05:53.086Z,99307.95
2018-12-17T17:08:20.624Z,99310.97
2018-12-17T17:10:48.166Z,99307.49
2018-12-17T17:13:15.724Z,99313.61
2018-12-17T17:15:43.658Z,99311.84
2018-12-17T17:18:11.308Z,99315.86
2018-12-17T17:20:39.095Z,99317.17
2018-12-17T17:23:06.693Z,99320.70
2018-12-17T17:25:34.263Z,99321.23
2018-12-17T17:28:01.797Z,99327.72
2018-12-17T17:30:29.381Z,99331.20
2018-12-17T17:32:56.971Z,99336.45
2018-12-17T17:35:24.642Z,99340.30
2018-12-17T17:37:52.214Z,99348.95
2018-12-17T17:40:19.771Z,99348.08
2018-12-17T17:42:47.411Z,99349.47
2018-12-17T17:45:15.095Z,99345.13
2018-12-17T17:47:42.798Z,99350.36
2018-12-17T17:50:10.495Z,99346.38
2018-12-17T17:52:38.313Z,99347.75
2018-12-17T17:55:06.161Z,99349.08
2018-12-17T17:57:35.054Z,99355.66
2018-12-17T18:00:02.792Z,99362.25
2018-12-17T18:02:30.445Z,99360.45
2018-12-17T18:04:58.105Z,99361.77
2018-12-17T18:07:25.763Z,99367.39
2018-12-17T18:09:53.316Z,99366.55
2018-12-17T18:12:20.896Z,99373.55
2018-12-17T18:14:48.766Z,99378.33
2018-12-17T18:17:16.415Z,99382.23
2018-12-17T18:19:43.933Z,99382.64
2018-12-17T18:22:11.526Z,99388.70
2018-12-17T18:24:39.040Z,99388.80
2018-12-17T18:27:06.563Z,99396.61
2018-12-17T18:29:34.335Z,99392.68
2018-12-17T18:32:01.970Z,99395.81
2018-12-17T18:34:29.468Z,99400.67
2018-12-17T18:36:57.038Z,99403.67
2018-12-17T18:39:24.613Z,99412.86
2018-12-17T18:41:52.191Z,99415.84
2018-12-17T18:44:19.993Z,99419.80
2018-12-17T18:46:47.675Z,99418.98
2018-12-17T18:49:15.226Z,99422.41
2018-12-17T18:51:42.781Z,99418.41
2018-12-17T18:54:10.649Z,99426.78
2018-12-17T18:56:38.265Z,99433.36
2018-12-17T18:59:05.964Z,99435.95
2018-12-17T19:01:33.585Z,99439.73
2018-12-17T19:04:01.165Z,99445.75
2018-12-17T19:06:28.737Z,99449.55
2018-12-17T19:08:56.347Z,99454.72
2018-12-17T19:11:23.877Z,99456.03
2018-12-17T19:13:51.610Z,99457.21
2018-12-17T19:16:19.352Z,99461.20
2018-12-17T19:18:46.999Z,99459.39
2018-12-17T19:21:14.644Z,99460.19
2018-12-17T19:23:42.201Z,99462.81
2018-12-17T19:26:09.949Z,99463.69
2018-12-17T19:28:37.616Z,99475.46
2018-12-17T19:31:05.313Z,99479.35
2018-12-17T19:33:32.982Z,99475.86
2018-12-17T19:36:00.644Z,99479.39
2018-12-17T19:38:28.205Z,99478.34
2018-12-17T19:40:55.829Z,99473.97
2018-12-17T19:43:23.501Z,99467.36
2018-12-17T19:45:51.307Z,99470.81
2018-12-17T19:48:18.967Z,99472.59
2018-12-17T19:50:46.684Z,99474.81
2018-12-17T19:53:14.280Z,99470.92
2018-12-17T19:55:41.835Z,99470.56
2018-12-17T19:58:09.690Z,99472.30
2018-12-17T20:00:37.262Z,99476.23
2018-12-17T20:03:04.865Z,99484.52
2018-12-17T20:05:32.486Z,99485.89
2018-12-17T20:08:00.187Z,99479.45
2018-12-17T20:10:27.759Z,99483.75
2018-12-17T20:12:55.792Z,99479.42
2018-12-17T20:15:23.342Z,99484.63
2018-12-17T20:17:51.044Z,99488.51
2018-12-17T20:20:18.713Z,99492.88
2018-12-17T20:22:46.453Z,99497.09
2018-12-17T20:25:14.042Z,99505.41
2018-12-17T20:27:41.566Z,99501.92
2018-12-17T20:30:09.973Z,99497.27
2018-12-17T20:32:37.678Z,99497.77
2018-12-17T20:35:06.511Z,99491.23
2018-12-17T20:37:34.070Z,99500.87
2018-12-17T20:40:01.793Z,99502.54
2018-12-17T20:42:29.607Z,99505.13
2018-12-17T20:44:57.387Z,99511.19
2018-12-17T20:47:25.541Z,99508.97
2018-12-17T20:49:53.298Z,99515.00
2018-12-17T20:52:21.109Z,99523.25
2018-12-17T20:54:48.629Z,99526.66
2018-12-17T20:57:16.182Z,99531.89
2018-12-17T20:59:43.850Z,99531.94
2018-12-17T21:02:11.430Z,99534.63
2018-12-17T21:04:39.481Z,99536.88
2018-12-17T21:07:07.139Z,99538.23
2018-12-17T21:09:34.963Z,99545.25
2018-12-17T21:12:02.749Z,99544.45
2018-12-17T21:14:30.536Z,99546.23
2018-12-17T21:16:58.032Z,99547.51
2018-12-17T21:19:25.581Z,99553.25
2018-12-17T21:21:53.208Z,99550.70
2018-12-17T21:24:20.886Z,99555.03
2018-12-17T21:26:48.813Z,99548.09
2018-12-17T21:29:16.409Z,99552.05
2018-12-17T21:31:43.958Z,99541.66
2018-12-17T21:34:12.012Z,99546.34
2018-12-17T21:36:39.929Z,99545.47
2018-12-17T21:39:07.755Z,99550.23
2018-12-17T21:41:35.482Z,99547.98
2018-12-17T21:44:02.985Z,99554.05
2018-12-17T21:46:30.747Z,99558.02
2018-12-17T21:48:58.534Z,99556.19
2018-12-17T21:51:26.997Z,99550.92
2018-12-17T21:53:54.865Z,99551.32
2018-12-17T21:56:22.501Z,99552.59
2018-12-17T21:58:50.277Z,99556.19
2018-12-17T22:01:17.872Z,99554.88
2018-12-17T22:03:45.497Z,99556.63
2018-12-17T22:06:13.165Z,99561.86
2018-12-17T22:08:41.536Z,99563.53
2018-12-17T22:11:09.227Z,99569.56
2018-12-17T22:13:39.497Z,99576.06
2018-12-17T22:16:07.996Z,99570.31
2018-12-17T22:18:35.814Z,99571.26
2018-12-17T22:21:03.608Z,99567.34
2018-12-17T22:23:31.808Z,99569.52
2018-12-17T22:25:59.394Z,99572.25
2018-12-17T22:28:27.003Z,99565.20
2018-12-17T22:30:54.616Z,99567.02
2018-12-17T22:33:23.868Z,99566.15
2018-12-17T22:35:52.218Z,99567.97
2018-12-17T22:38:20.254Z,99568.37
2018-12-17T22:40:59.865Z,99568.80
2018-12-17T22:43:31.565Z,99564.48
2018-12-17T22:45:59.476Z,99562.38
2018-12-17T22:48:27.286Z,99563.25
2018-12-17T22:50:58.834Z,99566.74
2018-12-17T22:53:26.998Z,99568.45
2018-12-17T22:55:54.937Z,99568.88
2018-12-17T22:58:22.644Z,99566.19
2018-12-17T23:00:50.467Z,99564.05
2018-12-17T23:03:18.277Z,99567.25
2018-12-17T23:05:46.696Z,99561.98
2018-12-17T23:08:14.395Z,99568.56
2018-12-17T23:10:47.807Z,99562.95
2018-12-17T23:13:21.403Z,99568.67
2018-12-17T23:15:56.063Z,99567.72
2018-12-17T23:18:23.094Z,99570.85
2018-12-17T23:20:50.577Z,99574.37
2018-12-17T23:23:18.603Z,99566.05
2018-12-17T23:25:47.129Z,99570.38
2018-12-17T23:28:15.239Z,99563.73
2018-12-17T23:30:42.838Z,99559.36
2018-12-17T23:33:10.668Z,99557.14
2018-12-17T23:35:40.103Z,99555.83
2018-12-17T23:38:08.038Z,99558.37
2018-12-17T23:40:36.089Z,99554.84
2018-12-17T23:43:04.294Z,99556.16
2018-12-17T23:45:32.166Z,99554.38
2018-12-17T23:48:00.269Z,99557.34
2018-12-17T23:50:28.128Z,99556.44
2018-12-17T23:52:57.240Z,99559.02
2018-12-17T23:55:24.986Z,99558.11
2018-12-17T23:57:52.742Z,99557.23
